createdAt,value
2022-10-17T00:01:23.194Z,93822.53
2022-10-17T00:04:26.325Z,93832.22
2022-10-17T00:07:29.681Z,93820.56
2022-10-17T00:10:33.095Z,93818.78
2022-10-17T00:13:36.833Z,93817.94
2022-10-17T00:16:39.981Z,93822.66
2022-10-17T00:19:43.476Z,93817.03
2022-10-17T00:22:46.618Z,93833.28
2022-10-17T00:25:59.181Z,93819.53
2022-10-17T00:29:02.232Z,93822.78
2022-10-17T00:32:05.602Z,93829.06
2022-10-17T00:35:09.860Z,93829.44
2022-10-17T00:38:12.946Z,93825.97
2022-10-17T00:41:18.113Z,93831.06
2022-10-17T00:44:30.283Z,93830.56
2022-10-17T00:47:35.217Z,93829.16
2022-10-17T00:50:39.465Z,93833.56
2022-10-17T00:53:42.646Z,93827.44
2022-10-17T00:56:48.129Z,93821.66
2022-10-17T00:59:55.041Z,93835.19
2022-10-17T01:02:58.039Z,93840.44
2022-10-17T01:06:01.160Z,93841.78
2022-10-17T01:09:04.368Z,93844.25
2022-10-17T01:12:13.841Z,93838.63
2022-10-17T01:15:58.270Z,93841.00
2022-10-17T01:19:08.342Z,93839.66
2022-10-17T01:22:19.971Z,93836.78
2022-10-17T01:25:48.937Z,93838.72
2022-10-17T01:29:10.528Z,93826.63
2022-10-17T01:32:19.907Z,93827.13
2022-10-17T01:35:59.400Z,93829.06
2022-10-17T01:39:15.543Z,93815.97
2022-10-17T01:42:29.325Z,93814.28
2022-10-17T01:45:54.506Z,93811.88
2022-10-17T01:49:01.434Z,93809.81
2022-10-17T01:52:13.302Z,93806.84
2022-10-17T01:55:22.279Z,93812.13
2022-10-17T01:58:49.870Z,93808.50
2022-10-17T02:01:56.462Z,93804.44
2022-10-17T02:05:02.552Z,93809.34
2022-10-17T02:08:06.379Z,93808.13
2022-10-17T02:11:17.369Z,93807.09
2022-10-17T02:14:46.587Z,93802.66
2022-10-17T02:18:11.283Z,93794.16
2022-10-17T02:21:29.318Z,93793.72
2022-10-17T02:24:55.635Z,93789.47
2022-10-17T02:28:30.904Z,93782.00
2022-10-17T02:31:46.878Z,93761.53
2022-10-17T02:34:56.170Z,93782.94
2022-10-17T02:38:00.480Z,93775.25
2022-10-17T02:41:05.961Z,93779.41
2022-10-17T02:44:10.352Z,93772.44
2022-10-17T02:48:05.703Z,93778.75
2022-10-17T02:51:23.864Z,93774.75
2022-10-17T02:54:36.980Z,93770.72
2022-10-17T02:57:49.351Z,93762.50
2022-10-17T03:00:53.605Z,93757.47
2022-10-17T03:04:11.711Z,93755.06
2022-10-17T03:07:14.917Z,93752.69
2022-10-17T03:10:18.357Z,93749.63
2022-10-17T03:13:21.506Z,93745.13
2022-10-17T03:16:25.661Z,93741.47
2022-10-17T03:19:28.792Z,93731.78
2022-10-17T03:22:32.825Z,93735.84
2022-10-17T03:25:37.777Z,93731.47
2022-10-17T03:28:41.693Z,93721.97
2022-10-17T03:31:44.759Z,93722.94
2022-10-17T03:34:47.970Z,93717.53
2022-10-17T03:37:51.180Z,93717.25
2022-10-17T03:40:57.391Z,93713.38
2022-10-17T03:44:00.662Z,93707.69
2022-10-17T03:47:04.041Z,93699.84
2022-10-17T03:50:08.090Z,93703.28
2022-10-17T03:53:13.303Z,93703.50
2022-10-17T03:56:22.501Z,93695.38
2022-10-17T03:59:33.235Z,93694.13
2022-10-17T04:02:45.535Z,93687.84
2022-10-17T04:05:54.651Z,93679.72
2022-10-17T04:08:57.712Z,93684.31
2022-10-17T04:12:06.133Z,93677.88
2022-10-17T04:15:11.792Z,93674.13
2022-10-17T04:18:15.060Z,93667.94
2022-10-17T04:21:19.346Z,93668.78
2022-10-17T04:24:22.479Z,93653.94
2022-10-17T04:27:41.567Z,93654.22
2022-10-17T04:30:45.659Z,93653.72
2022-10-17T04:33:50.873Z,93646.16
2022-10-17T04:36:54.613Z,93635.19
2022-10-17T04:39:57.867Z,93636.00
2022-10-17T04:43:01.085Z,93630.13
2022-10-17T04:46:13.141Z,93628.28
2022-10-17T04:49:16.383Z,93621.69
2022-10-17T04:52:22.674Z,93619.22
2022-10-17T04:55:26.710Z,93621.38
2022-10-17T04:58:31.023Z,93609.75
2022-10-17T05:01:34.083Z,93606.66
2022-10-17T05:04:37.227Z,93602.16
2022-10-17T05:07:41.915Z,93601.69
2022-10-17T05:10:55.703Z,93579.44
2022-10-17T05:14:01.695Z,93584.78
2022-10-17T05:17:06.913Z,93580.94
2022-10-17T05:20:11.643Z,93573.25
2022-10-17T05:23:15.604Z,93578.00
2022-10-17T05:26:20.974Z,93583.31
2022-10-17T05:29:24.695Z,93575.50
2022-10-17T05:32:36.008Z,93567.00
2022-10-17T05:35:39.222Z,93568.47
2022-10-17T05:38:42.540Z,93568.06
2022-10-17T05:41:47.612Z,93568.84
2022-10-17T05:44:50.897Z,93563.13
2022-10-17T05:47:55.375Z,93553.03
2022-10-17T05:51:01.182Z,93552.97
2022-10-17T05:54:08.779Z,93548.41
2022-10-17T05:57:12.793Z,93549.09
2022-10-17T06:00:17.402Z,93547.22
2022-10-17T06:03:30.830Z,93540.13
2022-10-17T06:06:38.617Z,93530.38
2022-10-17T06:09:42.104Z,93536.97
2022-10-17T06:12:45.845Z,93524.03
2022-10-17T06:15:51.115Z,93525.88
2022-10-17T06:18:55.119Z,93525.16
2022-10-17T06:21:59.249Z,93523.38
2022-10-17T06:25:03.969Z,93518.94
2022-10-17T06:28:07.740Z,93517.06
2022-10-17T06:31:15.172Z,93505.41
2022-10-17T06:34:18.652Z,93506.78
2022-10-17T06:37:22.302Z,93499.72
2022-10-17T06:40:26.190Z,93499.84
2022-10-17T06:43:30.960Z,93492.75
2022-10-17T06:46:52.395Z,93482.97
2022-10-17T06:49:57.339Z,93482.88
2022-10-17T06:53:07.073Z,93476.28
2022-10-17T06:56:25.756Z,93480.94
2022-10-17T06:59:36.570Z,93473.06
2022-10-17T07:02:54.971Z,93469.75
2022-10-17T07:05:59.765Z,93470.44
2022-10-17T07:09:04.098Z,93463.31
2022-10-17T07:12:09.160Z,93458.09
2022-10-17T07:15:18.354Z,93453.50
2022-10-17T07:18:21.657Z,93448.91
2022-10-17T07:21:24.867Z,93444.34
2022-10-17T07:24:28.817Z,93442.41
2022-10-17T07:27:53.391Z,93437.22
2022-10-17T07:31:03.720Z,93441.69
2022-10-17T07:34:08.194Z,93437.06
2022-10-17T07:37:11.407Z,93429.78
2022-10-17T07:40:18.304Z,93433.69
2022-10-17T07:43:21.605Z,93435.63
2022-10-17T07:46:25.167Z,93426.44
2022-10-17T07:49:28.326Z,93416.66
2022-10-17T07:52:32.662Z,93417.97
2022-10-17T07:55:37.595Z,93410.09
2022-10-17T07:58:41.475Z,93412.03
2022-10-17T08:01:44.643Z,93412.00
2022-10-17T08:04:47.806Z,93402.13
2022-10-17T08:07:51.161Z,93405.34
2022-10-17T08:10:56.057Z,93406.00
2022-10-17T08:13:59.315Z,93400.72
2022-10-17T08:17:02.608Z,93408.47
2022-10-17T08:20:07.501Z,93405.09
2022-10-17T08:23:11.477Z,93401.09
2022-10-17T08:26:17.893Z,93407.69
2022-10-17T08:29:21.326Z,93399.22
2022-10-17T08:32:27.238Z,93396.53
2022-10-17T08:35:30.784Z,93393.22
2022-10-17T08:38:36.865Z,93395.97
2022-10-17T08:41:46.432Z,93394.66
2022-10-17T08:45:05.727Z,93389.31
2022-10-17T08:48:16.768Z,93388.44
2022-10-17T08:51:29.084Z,93383.06
2022-10-17T08:54:49.222Z,93380.88
2022-10-17T08:57:52.514Z,93379.28
2022-10-17T09:01:01.764Z,93374.56
2022-10-17T09:04:27.209Z,93373.75
2022-10-17T09:07:43.255Z,93372.28
2022-10-17T09:10:55.554Z,93374.66
2022-10-17T09:14:12.211Z,93369.81
2022-10-17T09:17:37.509Z,93374.00
2022-10-17T09:20:43.671Z,93364.44
2022-10-17T09:23:59.471Z,93369.41
2022-10-17T09:27:21.325Z,93358.97
2022-10-17T09:30:51.585Z,93354.88
2022-10-17T09:33:58.046Z,93357.00
2022-10-17T09:37:03.007Z,93351.91
2022-10-17T09:40:08.054Z,93352.38
2022-10-17T09:43:16.003Z,93348.59
2022-10-17T09:46:26.486Z,93352.53
2022-10-17T09:49:39.303Z,93347.44
2022-10-17T09:52:49.333Z,93345.78
2022-10-17T09:55:58.669Z,93341.00
2022-10-17T09:59:02.210Z,93345.97
2022-10-17T10:02:14.690Z,93347.13
2022-10-17T10:05:21.121Z,93342.34
2022-10-17T10:08:26.307Z,93343.44
2022-10-17T10:11:55.970Z,93353.63
2022-10-17T10:14:59.806Z,93353.53
2022-10-17T10:18:03.513Z,93353.97
2022-10-17T10:21:18.606Z,93347.41
2022-10-17T10:24:21.543Z,93345.72
2022-10-17T10:27:25.037Z,93356.53
2022-10-17T10:30:36.115Z,93339.41
2022-10-17T10:33:49.450Z,93351.59
2022-10-17T10:37:04.220Z,93344.97
2022-10-17T10:40:09.105Z,93344.28
2022-10-17T10:43:20.357Z,93347.63
2022-10-17T10:46:27.922Z,93344.97
2022-10-17T10:49:32.882Z,93342.91
2022-10-17T10:52:40.474Z,93342.84
2022-10-17T10:55:57.735Z,93348.25
2022-10-17T10:59:13.378Z,93338.19
2022-10-17T11:02:30.618Z,93341.13
2022-10-17T11:05:45.019Z,93338.94
2022-10-17T11:09:12.750Z,93330.94
2022-10-17T11:12:25.144Z,93330.66
2022-10-17T11:15:46.584Z,93322.16
2022-10-17T11:19:27.916Z,93333.03
2022-10-17T11:22:35.911Z,93323.81
2022-10-17T11:25:41.791Z,93316.19
2022-10-17T11:28:45.269Z,93321.97
2022-10-17T11:31:53.640Z,93316.13
2022-10-17T11:35:06.170Z,93314.13
2022-10-17T11:38:34.236Z,93312.03
2022-10-17T11:41:46.382Z,93308.31
2022-10-17T11:44:54.383Z,93313.06
2022-10-17T11:48:07.204Z,93317.81
2022-10-17T11:54:54.735Z,93310.19
2022-10-17T11:58:30.575Z,93313.44
2022-10-17T12:01:40.637Z,93311.66
2022-10-17T12:05:07.668Z,93304.84
2022-10-17T12:08:15.073Z,93307.03
2022-10-17T12:11:46.420Z,93304.84
2022-10-17T12:14:49.667Z,93305.25
2022-10-17T12:18:03.822Z,93298.47
2022-10-17T12:21:07.112Z,93297.56
2022-10-17T12:24:28.702Z,93282.84
2022-10-17T12:27:46.909Z,93292.53
2022-10-17T12:30:57.928Z,93284.16
2022-10-17T12:34:03.394Z,93283.88
2022-10-17T12:37:10.698Z,93286.56
2022-10-17T12:40:38.453Z,93284.59
2022-10-17T12:43:47.600Z,93282.47
2022-10-17T12:47:17.125Z,93290.31
2022-10-17T12:51:12.190Z,93288.09
2022-10-17T12:54:21.071Z,93288.41
2022-10-17T12:57:44.375Z,93284.94
2022-10-17T13:01:22.490Z,93285.44
2022-10-17T13:04:23.542Z,93280.72
2022-10-17T13:07:27.422Z,93274.63
2022-10-17T13:10:35.611Z,93283.03
2022-10-17T13:13:46.275Z,93275.66
2022-10-17T13:17:01.286Z,93270.22
2022-10-17T13:20:05.460Z,93269.56
2022-10-17T13:23:23.688Z,93257.59
2022-10-17T13:26:29.429Z,93267.69
2022-10-17T13:29:33.638Z,93270.03
2022-10-17T13:32:40.421Z,93266.56
2022-10-17T13:39:13.639Z,93262.66
2022-10-17T13:42:29.575Z,93260.50
2022-10-17T13:45:34.455Z,93255.88
2022-10-17T13:48:39.591Z,93256.81
2022-10-17T13:51:46.281Z,93259.97
2022-10-17T13:54:52.002Z,93251.19
2022-10-17T13:57:55.238Z,93267.38
2022-10-17T14:00:59.291Z,93263.56
2022-10-17T14:04:19.606Z,93267.38
2022-10-17T14:08:09.451Z,93262.84
2022-10-17T14:11:24.319Z,93258.03
2022-10-17T14:14:30.369Z,93256.59
2022-10-17T14:17:39.233Z,93260.59
2022-10-17T14:21:29.195Z,93252.78
2022-10-17T14:24:29.252Z,93244.00
2022-10-17T14:27:36.069Z,93252.03
2022-10-17T14:30:56.141Z,93250.56
2022-10-17T14:34:01.775Z,93252.91
2022-10-17T14:37:10.425Z,93244.41
2022-10-17T14:40:21.832Z,93250.50
2022-10-17T14:43:28.634Z,93247.69
2022-10-17T14:46:32.181Z,93250.78
2022-10-17T14:49:42.153Z,93241.69
2022-10-17T14:53:02.211Z,93244.25
2022-10-17T14:56:22.710Z,93241.03
2022-10-17T15:02:52.996Z,93229.97
2022-10-17T15:05:56.770Z,93232.13
2022-10-17T15:09:00.682Z,93238.22
2022-10-17T15:12:07.936Z,93235.72
2022-10-17T15:15:11.475Z,93235.72
2022-10-17T15:18:15.381Z,93241.63
2022-10-17T15:21:38.494Z,93245.38
2022-10-17T15:24:44.130Z,93237.41
2022-10-17T15:27:48.612Z,93241.06
2022-10-17T15:30:51.822Z,93235.06
2022-10-17T15:33:55.092Z,93234.97
2022-10-17T15:36:59.411Z,93240.03
2022-10-17T15:40:02.688Z,93240.53
2022-10-17T15:43:05.894Z,93225.66
2022-10-17T15:46:36.252Z,93230.91
2022-10-17T15:49:40.510Z,93234.63
2022-10-17T15:52:44.249Z,93235.31
2022-10-17T15:55:50.692Z,93244.38
2022-10-17T15:58:54.413Z,93234.56
2022-10-17T16:01:57.625Z,93232.28
2022-10-17T16:05:01.181Z,93227.69
2022-10-17T16:08:05.739Z,93232.81
2022-10-17T16:11:17.617Z,93221.50
2022-10-17T16:14:20.810Z,93223.41
2022-10-17T16:17:24.072Z,93216.44
2022-10-17T16:20:27.414Z,93218.06
2022-10-17T16:23:30.717Z,93219.38
2022-10-17T16:26:34.025Z,93212.16
2022-10-17T16:29:37.084Z,93217.69
2022-10-17T16:32:40.231Z,93212.47
2022-10-17T16:35:43.607Z,93211.69
2022-10-17T16:38:47.603Z,93216.09
2022-10-17T16:41:53.568Z,93210.09
2022-10-17T16:44:59.547Z,93207.34
2022-10-17T16:48:02.700Z,93209.50
2022-10-17T16:51:06.188Z,93204.63
2022-10-17T16:54:10.024Z,93205.53
2022-10-17T16:57:13.239Z,93208.59
2022-10-17T17:00:17.072Z,93213.22
2022-10-17T17:03:20.320Z,93199.13
2022-10-17T17:06:28.798Z,93208.75
2022-10-17T17:09:32.143Z,93196.41
2022-10-17T17:12:37.030Z,93193.06
2022-10-17T17:15:40.266Z,93197.34
2022-10-17T17:18:44.104Z,93196.81
2022-10-17T17:21:53.844Z,93195.22
2022-10-17T17:24:57.185Z,93198.34
2022-10-17T17:28:00.251Z,93194.25
2022-10-17T17:31:03.490Z,93194.03
2022-10-17T17:34:08.167Z,93195.38
2022-10-17T17:37:12.587Z,93191.69
2022-10-17T17:40:15.628Z,93194.25
2022-10-17T17:43:19.479Z,93193.78
2022-10-17T17:46:23.672Z,93183.13
2022-10-17T17:49:26.680Z,93186.75
2022-10-17T17:52:30.276Z,93184.72
2022-10-17T17:55:34.839Z,93182.56
2022-10-17T17:58:38.320Z,93176.75
2022-10-17T18:01:41.556Z,93170.09
2022-10-17T18:04:44.590Z,93171.72
2022-10-17T18:07:47.929Z,93176.94
2022-10-17T18:10:55.147Z,93171.16
2022-10-17T18:14:01.283Z,93173.78
2022-10-17T18:17:04.243Z,93164.47
2022-10-17T18:20:08.210Z,93163.53
2022-10-17T18:23:12.290Z,93152.88
2022-10-17T18:26:15.823Z,93158.03
2022-10-17T18:29:18.834Z,93159.06
2022-10-17T18:32:22.098Z,93157.63
2022-10-17T18:35:25.079Z,93159.94
2022-10-17T18:38:28.263Z,93154.13
2022-10-17T18:41:35.848Z,93152.59
2022-10-17T18:44:38.821Z,93145.75
2022-10-17T18:47:45.883Z,93142.69
2022-10-17T18:50:48.903Z,93141.66
2022-10-17T18:53:54.511Z,93143.34
2022-10-17T18:56:57.531Z,93134.88
2022-10-17T19:00:00.569Z,93136.78
2022-10-17T19:03:05.461Z,93125.25
2022-10-17T19:06:10.315Z,93125.34
2022-10-17T19:09:14.936Z,93134.16
2022-10-17T19:12:17.960Z,93119.59
2022-10-17T19:15:23.737Z,93121.50
2022-10-17T19:18:28.886Z,93123.84
2022-10-17T19:21:32.287Z,93129.53
2022-10-17T19:24:35.301Z,93122.69
2022-10-17T19:27:39.900Z,93117.19
2022-10-17T19:30:43.480Z,93121.31
2022-10-17T19:33:46.675Z,93119.97
2022-10-17T19:36:50.157Z,93124.34
2022-10-17T19:39:53.190Z,93121.09
2022-10-17T19:42:56.172Z,93126.44
2022-10-17T19:46:03.908Z,93122.34
2022-10-17T19:49:07.861Z,93119.03
2022-10-17T19:52:10.945Z,93114.06
2022-10-17T19:55:13.968Z,93115.91
2022-10-17T19:58:17.029Z,93121.03
2022-10-17T20:01:25.494Z,93128.41
2022-10-17T20:04:29.761Z,93121.34
2022-10-17T20:07:32.729Z,93123.50
2022-10-17T20:10:35.961Z,93122.56
2022-10-17T20:13:40.647Z,93118.91
2022-10-17T20:16:45.348Z,93112.94
2022-10-17T20:19:48.374Z,93120.31
2022-10-17T20:22:51.400Z,93120.47
2022-10-17T20:26:08.073Z,93110.53
2022-10-17T20:29:28.808Z,93107.09
2022-10-17T20:32:40.176Z,93105.00
2022-10-17T20:38:48.039Z,93117.28
2022-10-17T20:41:51.080Z,93107.91
2022-10-17T20:44:55.538Z,93108.19
2022-10-17T20:47:58.689Z,93101.00
2022-10-17T20:51:08.997Z,93086.59
2022-10-17T20:54:13.299Z,93078.41
2022-10-17T20:57:16.717Z,93081.19
2022-10-17T21:00:19.675Z,93081.75
2022-10-17T21:03:22.713Z,93084.50
2022-10-17T21:06:26.106Z,93091.00
2022-10-17T21:09:29.185Z,93091.53
2022-10-17T21:12:50.048Z,93077.38
2022-10-17T21:15:55.459Z,93078.78
2022-10-17T21:18:59.242Z,93078.06
2022-10-17T21:22:02.424Z,93077.41
2022-10-17T21:25:05.737Z,93062.50
2022-10-17T21:28:08.783Z,93067.84
2022-10-17T21:31:17.007Z,93066.50
2022-10-17T21:34:22.042Z,93069.34
2022-10-17T21:37:25.040Z,93066.13
2022-10-17T21:40:28.123Z,93061.72
2022-10-17T21:43:31.393Z,93063.16
2022-10-17T21:46:34.939Z,93052.34
2022-10-17T21:49:38.853Z,93057.16
2022-10-17T21:52:42.181Z,93051.91
2022-10-17T21:55:45.226Z,93051.22
2022-10-17T21:58:48.960Z,93043.59
2022-10-17T22:01:52.099Z,93031.59
2022-10-17T22:04:55.134Z,93028.28
2022-10-17T22:07:58.174Z,93030.22
2022-10-17T22:11:12.080Z,93029.28
2022-10-17T22:14:18.361Z,93046.84
2022-10-17T22:17:21.310Z,93044.19
2022-10-17T22:20:24.406Z,93046.75
2022-10-17T22:23:27.354Z,93049.59
2022-10-17T22:26:31.982Z,93043.63
2022-10-17T22:29:35.095Z,93037.28
2022-10-17T22:32:38.110Z,93020.75
2022-10-17T22:35:43.176Z,93018.94
2022-10-17T22:38:46.270Z,93017.84
2022-10-17T22:41:49.413Z,93016.94
2022-10-17T22:44:52.554Z,93024.53
2022-10-17T22:47:55.648Z,93019.50
2022-10-17T22:51:00.100Z,93020.50
2022-10-17T22:54:03.235Z,93030.50
2022-10-17T22:57:06.299Z,93031.19
2022-10-17T23:00:12.032Z,93032.19
2022-10-17T23:03:15.455Z,93024.75
2022-10-17T23:06:19.324Z,93020.28
2022-10-17T23:09:22.466Z,93008.25
2022-10-17T23:12:25.519Z,93005.00
2022-10-17T23:15:28.556Z,93014.44
2022-10-17T23:21:34.309Z,93008.59
2022-10-17T23:24:37.411Z,93017.63
2022-10-17T23:27:40.526Z,93016.81
2022-10-17T23:30:43.739Z,93029.84
2022-10-17T23:33:48.429Z,93029.06
2022-10-17T23:36:52.319Z,93032.34
2022-10-17T23:39:55.396Z,93027.59
2022-10-17T23:42:58.428Z,93016.94
2022-10-17T23:46:02.839Z,93018.28
2022-10-17T23:49:07.066Z,93010.72
2022-10-17T23:52:10.092Z,93019.28
2022-10-17T23:55:13.090Z,93007.63
2022-10-17T23:58:16.104Z,93000.34
